createdAt,value
2018-05-02T00:00:39.082Z,2.33
2018-05-02T00:03:06.543Z,3.40
2018-05-02T00:05:34.019Z,5.07
2018-05-02T00:08:01.482Z,3.13
2018-05-02T00:10:28.990Z,2.73
2018-05-02T00:12:56.450Z,2.20
2018-05-02T00:15:23.927Z,2.57
2018-05-02T00:17:51.379Z,2.40
2018-05-02T00:20:18.859Z,2.43
2018-05-02T00:22:46.333Z,3.00
2018-05-02T00:25:13.998Z,3.40
2018-05-02T00:27:41.451Z,3.60
2018-05-02T00:30:08.933Z,2.63
2018-05-02T00:32:36.391Z,4.33
2018-05-02T00:35:03.846Z,3.13
2018-05-02T00:37:32.165Z,2.97
2018-05-02T00:39:59.621Z,3.20
2018-05-02T00:42:27.101Z,2.73
2018-05-02T00:44:54.563Z,3.53
2018-05-02T00:47:22.046Z,3.40
2018-05-02T00:49:49.512Z,3.70
2018-05-02T00:52:16.994Z,3.70
2018-05-02T00:54:44.445Z,2.77
2018-05-02T00:57:11.930Z,3.30
2018-05-02T00:59:39.381Z,2.63
2018-05-02T01:02:06.867Z,2.70
2018-05-02T01:04:34.322Z,3.17
2018-05-02T01:07:01.808Z,2.50
2018-05-02T01:09:29.279Z,3.07
2018-05-02T01:11:56.755Z,2.60
2018-05-02T01:14:24.212Z,2.47
2018-05-02T01:16:51.690Z,3.17
2018-05-02T01:19:19.147Z,6.97
2018-05-02T01:21:46.635Z,3.37
2018-05-02T01:24:14.219Z,3.07
2018-05-02T01:26:41.693Z,3.43
2018-05-02T01:29:09.148Z,2.70
2018-05-02T01:31:36.626Z,3.73
2018-05-02T01:34:04.083Z,3.30
2018-05-02T01:36:31.559Z,3.27
2018-05-02T01:38:59.013Z,2.73
2018-05-02T01:41:26.503Z,3.57
2018-05-02T01:43:53.962Z,2.33
2018-05-02T01:46:21.455Z,2.97
2018-05-02T01:49:00.793Z,2.60
2018-05-02T01:51:28.271Z,3.13
2018-05-02T01:53:55.732Z,3.90
2018-05-02T01:56:23.219Z,4.17
2018-05-02T01:58:50.681Z,2.97
2018-05-02T02:01:18.170Z,5.67
2018-05-02T02:03:45.618Z,2.73
2018-05-02T02:06:13.097Z,4.40
2018-05-02T02:08:40.554Z,2.77
2018-05-02T02:11:08.032Z,2.60
2018-05-02T02:13:35.488Z,3.13
2018-05-02T02:16:02.966Z,4.87
2018-05-02T02:18:30.419Z,3.40
2018-05-02T02:20:57.902Z,3.17
2018-05-02T02:23:25.383Z,3.53
2018-05-02T02:25:52.854Z,3.57
2018-05-02T02:28:20.311Z,2.70
2018-05-02T02:30:47.781Z,3.83
2018-05-02T02:33:15.263Z,3.60
2018-05-02T02:35:42.783Z,3.83
2018-05-02T02:38:10.243Z,3.17
2018-05-02T02:40:37.724Z,4.03
2018-05-02T02:43:05.178Z,4.33
2018-05-02T02:45:32.667Z,4.43
2018-05-02T02:48:00.194Z,3.13
2018-05-02T02:50:27.655Z,4.07
2018-05-02T02:52:55.134Z,8.73
2018-05-02T02:55:22.624Z,6.57
2018-05-02T02:57:50.094Z,3.97
2018-05-02T03:00:17.567Z,4.33
2018-05-02T03:02:45.055Z,3.53
2018-05-02T03:05:12.528Z,4.77
2018-05-02T03:07:40.991Z,3.53
2018-05-02T03:10:08.459Z,3.87
2018-05-02T03:12:35.938Z,4.27
2018-05-02T03:15:03.395Z,4.33
2018-05-02T03:17:30.875Z,4.77
2018-05-02T03:19:58.330Z,5.67
2018-05-02T03:22:25.810Z,5.10
2018-05-02T03:24:53.266Z,4.23
2018-05-02T03:27:20.746Z,4.40
2018-05-02T03:29:48.227Z,10.17
2018-05-02T03:32:15.798Z,3.73
2018-05-02T03:34:43.264Z,4.97
2018-05-02T03:37:10.743Z,4.87
2018-05-02T03:39:38.202Z,4.17
2018-05-02T03:42:05.666Z,3.90
2018-05-02T03:44:33.154Z,5.37
2018-05-02T03:47:00.663Z,10.47
2018-05-02T03:49:28.114Z,10.40
2018-05-02T03:51:55.575Z,10.77
2018-05-02T03:54:23.054Z,9.20
2018-05-02T03:56:50.540Z,10.10
2018-05-02T03:59:19.055Z,7.97
2018-05-02T04:01:58.390Z,5.13
2018-05-02T04:04:37.635Z,3.83
2018-05-02T04:07:14.843Z,6.60
2018-05-02T04:09:42.338Z,4.30
2018-05-02T04:12:12.352Z,4.23
2018-05-02T04:14:39.830Z,5.60
2018-05-02T04:17:07.322Z,6.53
2018-05-02T04:19:34.803Z,4.20
2018-05-02T04:22:02.269Z,4.67
2018-05-02T04:24:29.778Z,6.50
2018-05-02T04:26:57.238Z,4.70
2018-05-02T04:29:24.715Z,4.03
2018-05-02T04:31:52.170Z,3.73
2018-05-02T04:34:19.651Z,5.17
2018-05-02T04:36:47.149Z,3.87
2018-05-02T04:39:14.652Z,5.13
2018-05-02T04:41:42.115Z,7.17
2018-05-02T04:44:09.594Z,4.50
2018-05-02T04:46:37.058Z,5.93
2018-05-02T04:49:04.562Z,6.27
2018-05-02T04:51:32.031Z,10.07
2018-05-02T04:53:59.518Z,8.27
2018-05-02T04:56:27.021Z,8.37
2018-05-02T04:58:54.488Z,6.63
2018-05-02T05:01:21.981Z,4.70
2018-05-02T05:03:49.493Z,7.27
2018-05-02T05:06:16.978Z,9.83
2018-05-02T05:08:44.435Z,7.67
2018-05-02T05:11:11.919Z,5.73
2018-05-02T05:13:39.407Z,6.47
2018-05-02T05:16:06.881Z,8.23
2018-05-02T05:18:34.338Z,5.67
2018-05-02T05:21:01.814Z,4.90
2018-05-02T05:23:29.309Z,5.03
2018-05-02T05:25:56.806Z,4.43
2018-05-02T05:28:24.271Z,11.87
2018-05-02T05:30:51.794Z,6.73
2018-05-02T05:33:19.280Z,4.23
2018-05-02T05:35:47.761Z,4.80
2018-05-02T05:38:15.311Z,6.53
2018-05-02T05:40:42.780Z,6.70
2018-05-02T05:43:10.259Z,5.50
2018-05-02T05:45:37.714Z,5.90
2018-05-02T05:48:05.195Z,4.87
2018-05-02T05:50:32.660Z,5.13
2018-05-02T05:53:00.219Z,4.87
2018-05-02T05:55:27.670Z,5.80
2018-05-02T05:57:55.160Z,4.50
2018-05-02T06:00:22.619Z,6.70
2018-05-02T06:02:50.098Z,7.60
2018-05-02T06:05:17.559Z,7.17
2018-05-02T06:07:45.040Z,6.53
2018-05-02T06:10:12.503Z,7.03
2018-05-02T06:12:40.046Z,13.67
2018-05-02T06:15:07.471Z,8.77
2018-05-02T06:17:34.955Z,10.77
2018-05-02T06:20:02.419Z,6.57
2018-05-02T06:22:29.909Z,9.50
2018-05-02T06:24:57.378Z,7.83
2018-05-02T06:27:24.858Z,7.77
2018-05-02T06:29:52.326Z,16.67
2018-05-02T06:32:19.810Z,31.73
2018-05-02T06:34:47.261Z,6.87
2018-05-02T06:37:14.783Z,12.43
2018-05-02T06:39:42.247Z,8.40
2018-05-02T06:42:09.726Z,7.23
2018-05-02T06:44:38.277Z,9.83
2018-05-02T06:47:05.793Z,6.93
2018-05-02T06:49:33.283Z,6.23
2018-05-02T06:52:00.766Z,7.73
2018-05-02T06:54:28.246Z,6.27
2018-05-02T06:56:55.710Z,7.37
2018-05-02T06:59:23.220Z,6.83
2018-05-02T07:01:50.710Z,8.50
2018-05-02T07:04:18.196Z,5.93
2018-05-02T07:06:45.660Z,9.77
2018-05-02T07:09:13.139Z,6.07
2018-05-02T07:11:40.598Z,7.83
2018-05-02T07:14:08.079Z,7.27
2018-05-02T07:16:35.543Z,8.80
2018-05-02T07:19:03.115Z,6.83
2018-05-02T07:21:30.570Z,5.63
2018-05-02T07:23:58.060Z,5.43
2018-05-02T07:26:25.531Z,5.87
2018-05-02T07:28:53.043Z,8.50
2018-05-02T07:31:20.502Z,5.80
2018-05-02T07:33:48.894Z,5.43
2018-05-02T07:36:16.349Z,5.57
2018-05-02T07:38:43.864Z,5.20
2018-05-02T07:41:11.321Z,5.00
2018-05-02T07:43:38.808Z,5.87
2018-05-02T07:46:06.285Z,6.73
2018-05-02T07:48:33.776Z,6.77
2018-05-02T07:51:01.258Z,10.87
2018-05-02T07:53:28.731Z,8.83
2018-05-02T07:55:56.251Z,8.20
2018-05-02T07:58:23.716Z,6.80
2018-05-02T08:00:51.203Z,13.70
2018-05-02T08:03:18.666Z,9.57
2018-05-02T08:05:46.159Z,7.77
2018-05-02T08:08:13.648Z,8.20
2018-05-02T08:10:41.230Z,6.77
2018-05-02T08:13:08.713Z,5.80
2018-05-02T08:15:36.204Z,5.50
2018-05-02T08:18:03.695Z,8.70
2018-05-02T08:20:31.191Z,7.37
2018-05-02T08:22:58.654Z,7.97
2018-05-02T08:25:26.135Z,8.50
2018-05-02T08:27:53.604Z,8.90
2018-05-02T08:30:21.096Z,6.23
2018-05-02T08:32:48.644Z,5.00
2018-05-02T08:35:16.168Z,10.17
2018-05-02T08:37:43.626Z,4.73
2018-05-02T08:40:11.101Z,8.73
2018-05-02T08:42:38.676Z,5.50
2018-05-02T08:45:06.158Z,8.63
2018-05-02T08:47:33.639Z,6.80
2018-05-02T08:50:01.213Z,5.80
2018-05-02T08:52:28.630Z,6.53
2018-05-02T08:54:56.117Z,4.23
2018-05-02T08:57:23.628Z,5.70
2018-05-02T08:59:51.099Z,7.43
2018-05-02T09:02:18.638Z,7.73
2018-05-02T09:04:46.093Z,7.67
2018-05-02T09:07:13.596Z,10.40
2018-05-02T09:09:41.084Z,9.00
2018-05-02T09:12:08.579Z,6.97
2018-05-02T09:14:36.089Z,10.70
2018-05-02T09:17:03.574Z,9.03
2018-05-02T09:19:31.058Z,10.20
2018-05-02T09:21:58.542Z,7.90
2018-05-02T09:24:26.008Z,10.70
2018-05-02T09:26:53.507Z,7.27
2018-05-02T09:29:21.019Z,5.90
2018-05-02T09:31:48.522Z,6.80
2018-05-02T09:34:16.171Z,6.23
2018-05-02T09:36:43.674Z,7.60
2018-05-02T09:39:11.159Z,5.30
2018-05-02T09:41:38.648Z,8.97
2018-05-02T09:44:06.129Z,6.13
2018-05-02T09:46:33.612Z,7.37
2018-05-02T09:49:01.144Z,5.27
2018-05-02T09:51:28.631Z,9.53
2018-05-02T09:53:56.098Z,6.70
2018-05-02T09:56:23.586Z,5.73
2018-05-02T09:58:51.047Z,6.30
2018-05-02T10:01:18.542Z,7.53
2018-05-02T10:03:46.002Z,7.07
2018-05-02T10:06:13.470Z,7.43
2018-05-02T10:08:40.971Z,7.17
2018-05-02T10:11:08.430Z,4.93
2018-05-02T10:13:35.927Z,6.27
2018-05-02T10:16:03.425Z,6.60
2018-05-02T10:18:31.020Z,6.83
2018-05-02T10:20:58.395Z,8.97
2018-05-02T10:23:25.879Z,8.03
2018-05-02T10:25:53.381Z,6.13
2018-05-02T10:28:20.895Z,6.07
2018-05-02T10:30:48.374Z,5.60
2018-05-02T10:33:15.883Z,9.67
2018-05-02T10:35:43.354Z,6.03
2018-05-02T10:38:10.875Z,6.43
2018-05-02T10:40:38.339Z,5.30
2018-05-02T10:43:05.865Z,4.67
2018-05-02T10:45:33.316Z,5.50
2018-05-02T10:48:00.844Z,8.37
2018-05-02T10:50:28.332Z,7.37
2018-05-02T10:52:55.813Z,4.30
2018-05-02T10:55:23.325Z,5.30
2018-05-02T10:57:50.811Z,6.30
2018-05-02T11:00:18.334Z,6.62
2018-05-02T11:02:45.987Z,4.72
2018-05-02T11:05:13.451Z,5.78
2018-05-02T11:07:40.911Z,5.18
2018-05-02T11:10:08.393Z,4.63
2018-05-02T11:12:36.148Z,7.13
2018-05-02T11:15:03.642Z,6.65
2018-05-02T11:17:31.106Z,7.55
2018-05-02T11:19:58.617Z,4.90
2018-05-02T11:22:26.078Z,4.53
2018-05-02T11:24:53.563Z,4.25
2018-05-02T11:27:21.024Z,8.90
2018-05-02T11:29:48.507Z,6.85
2018-05-02T11:32:15.974Z,4.70
2018-05-02T11:34:43.477Z,4.30
2018-05-02T11:37:10.951Z,4.32
2018-05-02T11:39:38.429Z,4.95
2018-05-02T11:42:05.890Z,6.85
2018-05-02T11:44:33.382Z,8.63
2018-05-02T11:47:00.858Z,4.87
2018-05-02T11:49:28.367Z,5.78
2018-05-02T11:51:55.845Z,5.85
2018-05-02T11:54:23.328Z,5.68
2018-05-02T11:56:50.799Z,4.78
2018-05-02T11:59:18.289Z,5.12
2018-05-02T12:01:45.756Z,5.53
2018-05-02T12:04:13.239Z,5.25
2018-05-02T12:06:40.700Z,8.65
2018-05-02T12:09:08.180Z,8.15
2018-05-02T12:11:35.642Z,9.13
2018-05-02T12:14:03.146Z,7.28
2018-05-02T12:16:30.611Z,6.30
2018-05-02T12:18:58.105Z,5.03
2018-05-02T12:21:25.582Z,4.60
2018-05-02T12:23:53.074Z,4.22
2018-05-02T12:26:20.533Z,6.25
2018-05-02T12:28:48.022Z,3.92
2018-05-02T12:31:16.093Z,7.07
2018-05-02T12:33:43.555Z,4.40
2018-05-02T12:36:11.079Z,4.40
2018-05-02T12:38:38.545Z,4.70
2018-05-02T12:41:06.030Z,4.70
2018-05-02T12:43:33.505Z,4.50
2018-05-02T12:46:01.001Z,8.15
2018-05-02T12:48:28.474Z,5.35
2018-05-02T12:50:55.968Z,6.00
2018-05-02T12:53:23.438Z,4.62
2018-05-02T12:55:50.922Z,4.93
2018-05-02T12:58:18.383Z,5.50
2018-05-02T13:00:45.867Z,5.40
2018-05-02T13:03:13.321Z,4.85
2018-05-02T13:05:40.806Z,5.57
2018-05-02T13:08:08.338Z,4.68
2018-05-02T13:10:35.766Z,5.18
2018-05-02T13:13:03.238Z,5.35
2018-05-02T13:15:30.761Z,10.85
2018-05-02T13:17:58.226Z,3.58
2018-05-02T13:20:25.752Z,3.92
2018-05-02T13:22:56.009Z,4.03
2018-05-02T13:25:23.635Z,10.40
2018-05-02T13:27:51.102Z,14.07
2018-05-02T13:30:18.601Z,8.55
2018-05-02T13:32:46.084Z,4.32
2018-05-02T13:35:13.562Z,4.05
2018-05-02T13:37:41.535Z,5.22
2018-05-02T13:40:09.491Z,4.72
2018-05-02T13:42:37.093Z,6.87
2018-05-02T13:45:04.578Z,6.05
2018-05-02T13:47:32.058Z,4.82
2018-05-02T13:49:59.531Z,2.42
2018-05-02T13:52:27.024Z,4.50
2018-05-02T13:54:54.512Z,3.42
2018-05-02T13:57:22.000Z,3.00
2018-05-02T13:59:49.494Z,3.90
2018-05-02T14:02:16.981Z,3.78
2018-05-02T14:04:44.438Z,2.70
2018-05-02T14:07:11.971Z,2.97
2018-05-02T14:09:39.454Z,5.60
2018-05-02T14:12:06.944Z,6.35
2018-05-02T14:14:34.413Z,7.90
2018-05-02T14:17:01.918Z,4.03
2018-05-02T14:19:29.392Z,3.25
2018-05-02T14:21:56.899Z,3.15
2018-05-02T14:24:24.438Z,4.37
2018-05-02T14:26:52.012Z,2.67
2018-05-02T14:29:19.474Z,3.00
2018-05-02T14:31:46.978Z,5.40
2018-05-02T14:34:14.513Z,2.90
2018-05-02T14:36:42.035Z,5.05
2018-05-02T14:39:09.511Z,2.30
2018-05-02T14:41:37.038Z,4.65
2018-05-02T14:44:04.627Z,5.07
2018-05-02T14:46:32.108Z,3.78
2018-05-02T14:48:59.668Z,2.80
2018-05-02T14:51:27.214Z,2.87
2018-05-02T14:53:54.714Z,3.05
2018-05-02T14:56:22.337Z,2.87
2018-05-02T14:58:49.858Z,4.85
2018-05-02T15:01:17.322Z,5.45
2018-05-02T15:03:44.826Z,4.37
2018-05-02T15:06:12.363Z,5.45
2018-05-02T15:08:39.855Z,4.15
2018-05-02T15:11:07.341Z,3.20
2018-05-02T15:13:34.823Z,2.85
2018-05-02T15:16:02.292Z,3.00
2018-05-02T15:18:29.874Z,3.60
2018-05-02T15:20:57.373Z,4.25
2018-05-02T15:23:24.893Z,4.05
2018-05-02T15:25:52.363Z,4.07
2018-05-02T15:28:19.843Z,4.18
2018-05-02T15:30:47.367Z,3.50
2018-05-02T15:33:14.923Z,3.43
2018-05-02T15:35:42.411Z,9.90
2018-05-02T15:38:09.895Z,6.13
2018-05-02T15:40:37.494Z,4.60
2018-05-02T15:43:08.426Z,21.40
2018-05-02T15:45:35.947Z,23.23
2018-05-02T15:48:03.512Z,4.20
2018-05-02T15:50:39.517Z,52.37
2018-05-02T15:53:08.250Z,44.73
2018-05-02T15:55:35.834Z,32.67
2018-05-02T15:58:03.592Z,17.03
2018-05-02T16:00:31.244Z,51.03
2018-05-02T16:03:07.458Z,43.83
2018-05-02T16:05:35.254Z,39.50
2018-05-02T16:08:02.826Z,7.43
2018-05-02T16:12:59.645Z,5.77
2018-05-02T16:20:54.905Z,25.53
2018-05-02T16:23:22.495Z,42.20
2018-05-02T16:26:52.940Z,10.80
2018-05-02T16:29:21.443Z,41.60
2018-05-02T16:31:53.719Z,19.50
2018-05-02T16:34:21.274Z,35.23
2018-05-02T16:36:48.901Z,18.30
2018-05-02T16:39:16.591Z,27.80
2018-05-02T16:41:47.566Z,38.27
2018-05-02T16:44:20.840Z,34.27
2018-05-02T16:46:48.399Z,38.23
2018-05-02T16:49:16.060Z,6.93
2018-05-02T16:51:43.649Z,15.70
2018-05-02T16:54:11.181Z,4.60
2018-05-02T16:56:38.797Z,7.13
2018-05-02T16:59:06.520Z,8.33
2018-05-02T17:01:35.394Z,16.63
2018-05-02T17:04:03.138Z,32.83
2018-05-02T17:06:33.291Z,39.67
2018-05-02T17:09:00.871Z,4.60
2018-05-02T17:11:37.659Z,46.17
2018-05-02T17:27:10.464Z,5.30
2018-05-02T17:29:38.470Z,43.73
2018-05-02T17:32:06.077Z,7.80
2018-05-02T17:34:33.654Z,38.83
2018-05-02T17:37:01.461Z,56.97
2018-05-02T17:39:29.493Z,54.27
2018-05-02T17:41:59.190Z,48.83
2018-05-02T17:44:26.860Z,34.80
2018-05-02T17:46:54.382Z,9.37
2018-05-02T17:49:22.749Z,37.80
2018-05-02T17:51:50.314Z,22.57
2018-05-02T17:54:22.699Z,66.07
2018-05-02T17:57:01.470Z,58.37
2018-05-02T17:59:29.044Z,53.07
2018-05-02T18:02:18.717Z,21.93
2018-05-02T18:04:46.312Z,11.57
2018-05-02T18:07:13.911Z,31.93
2018-05-02T18:09:41.509Z,61.70
2018-05-02T18:12:08.983Z,26.13
2018-05-02T18:14:36.688Z,50.87
2018-05-02T18:17:04.471Z,20.37
2018-05-02T18:19:32.011Z,49.03
2018-05-02T18:22:13.695Z,37.00
2018-05-02T18:24:43.431Z,51.73
2018-05-02T18:27:16.120Z,44.40
2018-05-02T18:29:43.663Z,14.50
2018-05-02T18:32:22.379Z,58.37
2018-05-02T18:34:50.729Z,34.90
2018-05-02T18:37:18.433Z,8.37
2018-05-02T18:39:45.935Z,24.43
2018-05-02T18:42:19.164Z,68.73
2018-05-02T18:44:46.691Z,45.87
2018-05-02T18:47:14.306Z,4.83
2018-05-02T18:49:41.893Z,29.40
2018-05-02T18:52:09.491Z,27.60
2018-05-02T18:54:37.080Z,6.80
2018-05-02T18:57:04.621Z,16.50
2018-05-02T18:59:32.660Z,26.17
2018-05-02T19:02:00.593Z,39.43
2018-05-02T19:04:32.177Z,37.10
2018-05-02T19:06:59.855Z,49.20
2018-05-02T19:09:27.374Z,59.33
2018-05-02T19:12:01.017Z,8.80
2018-05-02T19:14:28.612Z,5.07
2018-05-02T19:16:56.292Z,35.23
2018-05-02T21:05:39.948Z,5.03
2018-05-02T21:08:07.466Z,5.33
2018-05-02T21:10:34.934Z,7.30
2018-05-02T21:13:02.434Z,5.67
2018-05-02T21:15:29.896Z,4.40
2018-05-02T21:17:57.391Z,5.80
2018-05-02T21:20:24.850Z,5.83
2018-05-02T21:22:52.310Z,5.70
2018-05-02T21:25:19.791Z,5.53
2018-05-02T21:27:47.265Z,7.87
2018-05-02T21:30:14.822Z,6.33
2018-05-02T21:32:42.282Z,5.57
2018-05-02T21:35:09.776Z,5.17
2018-05-02T21:37:37.232Z,5.33
2018-05-02T21:40:04.706Z,5.20
2018-05-02T21:42:32.163Z,6.17
2018-05-02T21:44:59.642Z,5.63
2018-05-02T21:47:27.098Z,5.57
2018-05-02T21:49:54.583Z,6.17
2018-05-02T21:52:22.061Z,5.80
2018-05-02T21:54:49.539Z,5.30
2018-05-02T21:57:18.046Z,7.50
2018-05-02T21:59:45.588Z,5.50
2018-05-02T22:02:13.019Z,5.93
2018-05-02T22:04:40.498Z,5.63
2018-05-02T22:07:07.958Z,5.20
2018-05-02T22:09:35.435Z,5.53
2018-05-02T22:12:02.894Z,5.07
2018-05-02T22:14:30.370Z,4.83
2018-05-02T22:16:57.826Z,5.57
2018-05-02T22:19:25.310Z,13.27
2018-05-02T22:21:52.774Z,4.57
2018-05-02T22:24:20.254Z,8.10
2018-05-02T22:26:47.714Z,5.40
2018-05-02T22:29:15.201Z,5.13
2018-05-02T22:31:42.659Z,6.43
2018-05-02T22:34:10.150Z,4.80
2018-05-02T22:36:37.862Z,7.97
2018-05-02T22:39:05.350Z,5.93
2018-05-02T22:41:32.811Z,6.30
2018-05-02T22:44:00.270Z,5.20
2018-05-02T22:46:27.767Z,6.20
2018-05-02T22:48:56.162Z,8.93
2018-05-02T22:51:23.662Z,5.10
2018-05-02T22:53:51.113Z,7.33
2018-05-02T22:56:18.594Z,5.27
2018-05-02T22:58:46.076Z,6.73
2018-05-02T23:01:13.558Z,5.57
2018-05-02T23:03:41.019Z,6.47
2018-05-02T23:06:08.527Z,8.80
2018-05-02T23:08:35.992Z,6.10
2018-05-02T23:11:03.505Z,5.97
2018-05-02T23:13:30.986Z,6.37
2018-05-02T23:15:58.474Z,11.03
2018-05-02T23:18:25.986Z,7.63
2018-05-02T23:20:53.445Z,8.33
2018-05-02T23:23:20.906Z,7.53
2018-05-02T23:25:48.410Z,6.93
2018-05-02T23:28:15.867Z,7.67
2018-05-02T23:30:43.345Z,7.57
2018-05-02T23:33:10.983Z,7.60
2018-05-02T23:35:38.569Z,7.90
2018-05-02T23:38:06.047Z,7.63
2018-05-02T23:40:33.543Z,8.07
2018-05-02T23:43:01.030Z,11.20
2018-05-02T23:45:28.522Z,10.20
2018-05-02T23:47:56.098Z,7.97
2018-05-02T23:50:23.507Z,11.33
2018-05-02T23:52:51.002Z,10.60
2018-05-02T23:55:18.509Z,9.70
2018-05-02T23:57:46.019Z,8.73
